createdAt,value
2023-04-11T00:00:01.446Z,44.17
2023-04-11T00:02:41.910Z,43.33
2023-04-11T00:05:10.036Z,46.97
2023-04-11T00:07:37.162Z,41.70
2023-04-11T00:10:04.631Z,41.95
2023-04-11T00:12:32.314Z,42.47
2023-04-11T00:14:59.437Z,40.50
2023-04-11T00:17:29.046Z,40.03
2023-04-11T00:19:58.000Z,41.90
2023-04-11T00:22:25.335Z,41.47
2023-04-11T00:24:53.328Z,40.28
2023-04-11T00:27:21.924Z,37.85
2023-04-11T00:29:50.612Z,39.35
2023-04-11T00:32:18.828Z,39.47
2023-04-11T00:34:46.251Z,37.42
2023-04-11T00:37:14.509Z,39.25
2023-04-11T00:39:41.714Z,39.75
2023-04-11T00:42:09.334Z,38.92
2023-04-11T00:44:36.668Z,36.83
2023-04-11T00:47:08.567Z,42.78
2023-04-11T00:49:37.272Z,39.90
2023-04-11T00:52:08.538Z,37.72
2023-04-11T00:54:36.987Z,36.67
2023-04-11T00:57:07.506Z,37.63
2023-04-11T00:59:35.876Z,39.70
2023-04-11T01:02:03.326Z,42.55
2023-04-11T01:04:30.915Z,39.28
2023-04-11T01:07:06.472Z,36.15
2023-04-11T01:09:36.459Z,33.70
2023-04-11T01:12:10.073Z,37.00
2023-04-11T01:14:37.236Z,37.88
2023-04-11T01:17:04.815Z,35.60
2023-04-11T01:19:32.330Z,38.55
2023-04-11T01:22:02.521Z,39.78
2023-04-11T01:24:31.091Z,41.10
2023-04-11T01:26:58.405Z,40.22
2023-04-11T01:29:25.711Z,39.00
2023-04-11T01:31:53.135Z,39.50
2023-04-11T01:34:22.974Z,41.05
2023-04-11T01:36:50.128Z,41.58
2023-04-11T01:39:17.579Z,38.95
2023-04-11T01:41:46.145Z,37.33
2023-04-11T01:44:13.885Z,43.08
2023-04-11T01:46:41.244Z,43.50
2023-04-11T01:49:08.568Z,38.78
2023-04-11T01:51:36.489Z,39.47
2023-04-11T01:54:03.897Z,40.13
2023-04-11T01:56:31.676Z,39.28
2023-04-11T01:58:59.444Z,39.50
2023-04-11T02:01:27.129Z,39.53
2023-04-11T02:03:54.545Z,35.67
2023-04-11T02:06:21.983Z,38.55
2023-04-11T02:08:49.320Z,38.03
2023-04-11T02:11:16.682Z,33.92
2023-04-11T02:13:46.121Z,39.92
2023-04-11T02:16:15.559Z,36.30
2023-04-11T02:18:44.341Z,36.65
2023-04-11T02:21:12.594Z,37.88
2023-04-11T02:23:39.923Z,40.60
2023-04-11T02:26:07.281Z,37.22
2023-04-11T02:28:34.593Z,35.55
2023-04-11T02:31:02.989Z,34.55
2023-04-11T02:33:30.460Z,35.55
2023-04-11T02:35:57.837Z,35.63
2023-04-11T02:38:25.703Z,32.65
2023-04-11T02:40:53.006Z,34.85
2023-04-11T02:43:20.335Z,30.05
2023-04-11T02:45:47.916Z,32.53
2023-04-11T02:48:15.792Z,32.85
2023-04-11T02:50:46.016Z,29.58
2023-04-11T02:53:13.249Z,37.13
2023-04-11T02:55:47.024Z,32.28
2023-04-11T02:58:18.166Z,31.40
2023-04-11T03:00:49.854Z,33.58
2023-04-11T03:03:17.484Z,31.27
2023-04-11T03:05:47.630Z,32.05
2023-04-11T03:08:18.770Z,35.13
2023-04-11T03:10:51.747Z,32.00
2023-04-11T03:13:20.300Z,35.58
2023-04-11T03:15:47.580Z,35.92
2023-04-11T03:18:16.156Z,31.25
2023-04-11T03:20:47.159Z,32.70
2023-04-11T03:23:16.185Z,33.63
2023-04-11T03:25:48.300Z,36.38
2023-04-11T03:28:17.717Z,30.27
2023-04-11T03:30:45.151Z,34.85
2023-04-11T03:33:18.117Z,40.00
2023-04-11T03:35:45.317Z,37.40
2023-04-11T03:38:12.602Z,35.97
2023-04-11T03:40:39.658Z,37.03
2023-04-11T03:43:14.090Z,36.55
2023-04-11T03:45:41.284Z,36.75
2023-04-11T03:48:18.105Z,36.38
2023-04-11T03:50:54.047Z,37.22
2023-04-11T03:53:27.988Z,34.85
2023-04-11T03:56:01.637Z,45.03
2023-04-11T03:58:34.622Z,38.25
2023-04-11T04:01:02.858Z,39.65
2023-04-11T04:03:31.082Z,42.00
2023-04-11T04:06:00.143Z,36.65
2023-04-11T04:08:27.754Z,38.35
2023-04-11T04:10:54.847Z,42.38
2023-04-11T04:13:21.916Z,39.45
2023-04-11T04:16:04.721Z,42.90
2023-04-11T04:18:33.032Z,46.05
2023-04-11T04:21:01.045Z,44.53
2023-04-11T04:23:30.105Z,38.05
2023-04-11T04:26:31.439Z,39.67
2023-04-11T04:29:18.293Z,41.92
2023-04-11T04:31:53.220Z,38.47
2023-04-11T04:34:29.381Z,38.00
2023-04-11T04:36:59.800Z,41.05
2023-04-11T04:39:38.296Z,42.63
2023-04-11T04:42:07.689Z,36.97
2023-04-11T04:44:39.125Z,42.55
2023-04-11T04:47:15.703Z,42.15
2023-04-11T04:49:44.078Z,39.40
2023-04-11T04:52:11.620Z,42.78
2023-04-11T04:54:40.132Z,40.10
2023-04-11T04:57:07.730Z,39.25
2023-04-11T04:59:34.840Z,40.00
2023-04-11T05:02:09.912Z,42.75
2023-04-11T05:04:37.283Z,41.20
2023-04-11T05:07:04.585Z,42.92
2023-04-11T05:09:32.482Z,41.40
2023-04-11T05:12:27.532Z,39.90
2023-04-11T05:14:59.561Z,43.70
2023-04-11T05:17:29.871Z,43.05
2023-04-11T05:19:57.626Z,45.65
2023-04-11T05:22:26.050Z,43.67
2023-04-11T05:24:57.136Z,43.43
2023-04-11T05:27:24.205Z,41.53
2023-04-11T05:29:51.685Z,44.72
2023-04-11T05:32:19.418Z,51.20
2023-04-11T05:34:57.286Z,42.53
2023-04-11T05:37:33.998Z,50.25
2023-04-11T05:40:01.166Z,45.05
2023-04-11T05:42:28.278Z,50.05
2023-04-11T05:44:55.538Z,48.45
2023-04-11T05:47:23.891Z,50.70
2023-04-11T05:49:50.957Z,50.58
2023-04-11T05:52:18.040Z,51.00
2023-04-11T05:54:45.094Z,47.15
2023-04-11T05:57:12.071Z,46.60
2023-04-11T05:59:39.145Z,47.17
2023-04-11T06:02:06.911Z,48.38
2023-04-11T06:04:34.196Z,47.00
2023-04-11T06:07:03.926Z,47.97
2023-04-11T06:09:32.721Z,50.00
2023-04-11T06:12:01.563Z,47.40
2023-04-11T06:14:28.591Z,49.28
2023-04-11T06:16:55.782Z,48.38
2023-04-11T06:19:22.838Z,45.63
2023-04-11T06:21:50.024Z,46.05
2023-04-11T06:24:19.983Z,49.53
2023-04-11T06:26:47.072Z,49.03
2023-04-11T06:29:14.154Z,48.08
2023-04-11T06:31:41.851Z,44.28
2023-04-11T06:34:09.154Z,48.08
2023-04-11T06:36:37.371Z,46.35
2023-04-11T06:39:05.909Z,42.38
2023-04-11T06:41:32.921Z,44.75
2023-04-11T06:44:00.126Z,46.35
2023-04-11T06:46:27.390Z,49.75
2023-04-11T06:48:54.575Z,45.00
2023-04-11T06:51:21.664Z,50.55
2023-04-11T06:53:48.703Z,41.42
2023-04-11T06:56:15.690Z,45.53
2023-04-11T06:58:42.937Z,45.22
2023-04-11T07:01:10.170Z,45.88
2023-04-11T07:03:38.193Z,44.13
2023-04-11T07:06:05.606Z,41.63
2023-04-11T07:08:32.714Z,44.53
2023-04-11T07:11:00.022Z,43.67
2023-04-11T07:13:27.103Z,41.90
2023-04-11T07:15:54.444Z,42.58
2023-04-11T07:18:21.594Z,45.90
2023-04-11T07:20:48.774Z,40.38
2023-04-11T07:23:15.928Z,37.25
2023-04-11T07:25:45.082Z,40.88
2023-04-11T07:28:12.231Z,34.80
2023-04-11T07:30:39.542Z,35.72
2023-04-11T07:33:06.589Z,34.38
2023-04-11T07:35:34.932Z,35.33
2023-04-11T07:38:02.174Z,29.88
2023-04-11T07:40:29.323Z,34.42
2023-04-11T07:42:56.433Z,30.63
2023-04-11T07:45:23.661Z,30.42
2023-04-11T07:47:50.781Z,28.85
2023-04-11T07:50:18.047Z,26.73
2023-04-11T07:52:45.053Z,26.48
2023-04-11T07:55:12.214Z,28.83
2023-04-11T07:57:39.501Z,27.02
2023-04-11T08:00:11.520Z,28.73
2023-04-11T08:02:42.064Z,27.65
2023-04-11T08:05:10.178Z,27.45
2023-04-11T08:07:37.388Z,28.55
2023-04-11T08:10:05.648Z,31.58
2023-04-11T08:12:32.929Z,25.55
2023-04-11T08:15:00.919Z,29.92
2023-04-11T08:17:30.747Z,26.33
2023-04-11T08:19:57.903Z,26.95
2023-04-11T08:22:25.065Z,27.58
2023-04-11T08:24:52.616Z,28.10
2023-04-11T08:27:19.793Z,25.52
2023-04-11T08:29:46.956Z,28.40
2023-04-11T08:32:14.099Z,23.52
2023-04-11T08:34:41.258Z,26.13
2023-04-11T08:37:08.343Z,23.58
2023-04-11T08:39:35.579Z,25.02
2023-04-11T08:42:03.339Z,23.27
2023-04-11T08:44:30.395Z,24.67
2023-04-11T08:46:57.430Z,24.85
2023-04-11T08:49:24.681Z,20.88
2023-04-11T08:51:54.188Z,20.63
2023-04-11T08:54:21.285Z,19.23
2023-04-11T08:56:48.310Z,17.17
2023-04-11T08:59:15.926Z,21.30
2023-04-11T09:01:43.086Z,16.77
2023-04-11T09:04:11.582Z,21.00
2023-04-11T09:06:40.442Z,20.33
2023-04-11T09:09:08.837Z,20.33
2023-04-11T09:11:52.703Z,18.92
2023-04-11T09:14:25.021Z,19.58
2023-04-11T09:17:01.895Z,19.85
2023-04-11T09:19:31.689Z,16.38
2023-04-11T09:22:01.176Z,15.52
2023-04-11T09:24:30.153Z,13.60
2023-04-11T09:27:12.093Z,13.68
2023-04-11T09:29:45.638Z,15.45
2023-04-11T09:32:42.993Z,13.23
2023-04-11T09:35:19.921Z,20.23
2023-04-11T09:37:49.681Z,16.75
2023-04-11T09:40:19.032Z,16.15
2023-04-11T09:42:48.236Z,13.35
2023-04-11T09:45:21.238Z,17.02
2023-04-11T09:47:50.262Z,12.20
2023-04-11T09:50:17.814Z,14.00
2023-04-11T09:52:46.278Z,17.67
2023-04-11T09:55:16.572Z,10.98
2023-04-11T09:57:46.284Z,12.40
2023-04-11T10:00:19.629Z,14.32
2023-04-11T10:02:50.128Z,14.50
2023-04-11T10:05:20.400Z,12.48
2023-04-11T10:08:05.885Z,13.98
2023-04-11T10:10:34.046Z,24.90
2023-04-11T10:13:01.515Z,10.43
2023-04-11T10:15:29.197Z,12.65
2023-04-11T10:18:13.002Z,11.05
2023-04-11T10:20:40.600Z,10.07
2023-04-11T10:23:07.804Z,11.27
2023-04-11T10:25:53.046Z,13.32
2023-04-11T10:28:39.931Z,12.52
2023-04-11T10:31:14.470Z,24.33
2023-04-11T10:34:14.654Z,12.57
2023-04-11T10:37:08.058Z,9.77
2023-04-11T10:39:50.578Z,12.65
2023-04-11T10:42:38.215Z,13.02
2023-04-11T10:45:28.860Z,10.73
2023-04-11T10:48:05.705Z,10.57
2023-04-11T10:50:38.055Z,9.38
2023-04-11T10:53:09.795Z,12.13
2023-04-11T10:55:50.777Z,13.82
2023-04-11T10:58:22.599Z,9.90
2023-04-11T11:00:49.970Z,13.00
2023-04-11T11:03:25.638Z,11.43
2023-04-11T11:06:02.525Z,10.43
2023-04-11T11:08:43.229Z,13.55
2023-04-11T11:11:11.647Z,11.23
2023-04-11T11:13:49.349Z,9.80
2023-04-11T11:16:25.057Z,11.27
2023-04-11T11:18:59.428Z,12.77
2023-04-11T11:21:28.804Z,13.82
2023-04-11T11:24:05.346Z,12.27
2023-04-11T11:26:40.022Z,15.82
2023-04-11T11:29:08.285Z,10.57
2023-04-11T11:31:43.256Z,11.75
2023-04-11T11:36:43.583Z,10.15
2023-04-11T11:39:12.010Z,10.85
2023-04-11T11:41:40.883Z,13.23
2023-04-11T11:44:20.859Z,11.63
2023-04-11T11:47:07.179Z,9.82
2023-04-11T11:49:54.504Z,14.90
2023-04-11T11:52:34.712Z,12.60
2023-04-11T11:57:53.894Z,14.18
2023-04-11T12:00:26.180Z,11.18
2023-04-11T12:02:55.334Z,14.38
2023-04-11T12:05:25.165Z,15.40
2023-04-11T12:07:56.576Z,12.45
2023-04-11T12:10:23.923Z,14.77
2023-04-11T12:12:52.887Z,14.23
2023-04-11T12:15:24.299Z,13.30
2023-04-11T12:17:55.316Z,15.05
2023-04-11T12:20:24.192Z,18.90
2023-04-11T12:22:53.613Z,11.50
2023-04-11T12:25:22.481Z,13.10
2023-04-11T12:27:49.598Z,11.73
2023-04-11T12:30:16.992Z,14.48
2023-04-11T12:32:45.570Z,12.40
2023-04-11T12:35:13.439Z,11.77
2023-04-11T12:37:41.351Z,13.60
2023-04-11T12:40:12.851Z,12.52
2023-04-11T12:42:45.703Z,13.07
2023-04-11T12:45:23.300Z,19.80
2023-04-11T12:47:50.624Z,15.35
2023-04-11T12:50:17.714Z,21.02
2023-04-11T12:52:44.812Z,13.43
2023-04-11T12:55:13.537Z,14.70
2023-04-11T12:57:41.707Z,14.73
2023-04-11T13:00:11.603Z,22.67
2023-04-11T13:02:43.956Z,13.10
2023-04-11T13:05:14.702Z,27.23
2023-04-11T13:07:42.842Z,61.20
2023-04-11T13:10:10.955Z,22.70
2023-04-11T13:12:41.834Z,20.05
2023-04-11T13:15:12.394Z,20.02
2023-04-11T13:20:13.260Z,15.40
2023-04-11T13:22:41.996Z,18.23
2023-04-11T13:25:10.931Z,30.45
2023-04-11T13:27:39.837Z,24.23
2023-04-11T13:30:08.233Z,24.80
2023-04-11T13:32:35.482Z,21.20
2023-04-11T13:35:04.075Z,21.98
2023-04-11T13:37:31.270Z,24.63
2023-04-11T13:39:58.410Z,21.58
2023-04-11T13:42:26.227Z,23.40
2023-04-11T13:44:53.920Z,23.35
2023-04-11T13:47:21.141Z,25.83
2023-04-11T13:49:48.405Z,23.63
2023-04-11T13:52:15.720Z,23.27
2023-04-11T13:54:42.861Z,21.60
2023-04-11T13:57:09.927Z,23.77
2023-04-11T13:59:37.015Z,22.30
2023-04-11T14:02:04.229Z,30.67
2023-04-11T14:04:31.537Z,26.90
2023-04-11T14:06:58.700Z,27.95
2023-04-11T14:09:25.982Z,25.98
2023-04-11T14:11:53.085Z,23.38
2023-04-11T14:14:20.131Z,26.50
2023-04-11T14:16:47.308Z,32.97
2023-04-11T14:19:14.699Z,27.55
2023-04-11T14:21:42.023Z,24.75
2023-04-11T14:24:09.727Z,24.27
2023-04-11T14:26:36.717Z,25.63
2023-04-11T14:29:04.572Z,23.60
2023-04-11T14:31:31.984Z,23.38
2023-04-11T14:33:59.482Z,30.95
2023-04-11T14:36:28.180Z,38.15
2023-04-11T14:38:55.492Z,26.35
2023-04-11T14:41:22.614Z,36.70
2023-04-11T14:43:49.644Z,24.88
2023-04-11T14:46:16.725Z,25.35
2023-04-11T14:48:43.856Z,26.33
2023-04-11T14:51:10.852Z,23.67
2023-04-11T14:53:38.047Z,15.63
2023-04-11T14:56:06.691Z,14.30
2023-04-11T14:58:34.232Z,14.73
2023-04-11T15:01:01.391Z,13.50
2023-04-11T15:03:28.636Z,15.73
2023-04-11T15:05:56.079Z,7.75
2023-04-11T15:08:23.134Z,8.10
2023-04-11T15:10:54.383Z,12.63
2023-04-11T15:13:22.667Z,6.10
2023-04-11T15:15:50.104Z,10.10
2023-04-11T15:18:28.165Z,6.65
2023-04-11T15:21:00.007Z,7.15
2023-04-11T15:23:27.230Z,6.93
2023-04-11T15:26:00.035Z,9.18
2023-04-11T15:28:30.995Z,6.15
2023-04-11T15:30:59.299Z,8.75
2023-04-11T15:33:27.890Z,5.78
2023-04-11T15:35:55.397Z,5.32
2023-04-11T15:38:23.333Z,7.85
2023-04-11T15:40:51.564Z,5.72
2023-04-11T15:43:19.185Z,5.25
2023-04-11T15:45:46.592Z,6.53
2023-04-11T15:48:13.964Z,9.23
2023-04-11T15:50:45.213Z,5.45
2023-04-11T15:53:12.878Z,6.80
2023-04-11T15:55:43.933Z,5.05
2023-04-11T15:58:11.355Z,4.50
2023-04-11T16:00:39.781Z,4.18
2023-04-11T16:03:08.677Z,3.65
2023-04-11T16:05:41.016Z,3.58
2023-04-11T16:08:09.421Z,6.38
2023-04-11T16:10:37.064Z,5.35
2023-04-11T16:13:04.245Z,7.93
2023-04-11T16:15:32.320Z,5.38
2023-04-11T16:17:59.567Z,3.30
2023-04-11T16:20:26.574Z,2.28
2023-04-11T16:22:53.773Z,4.72
2023-04-11T16:25:21.535Z,6.22
2023-04-11T16:27:50.300Z,2.70
2023-04-11T16:30:17.494Z,2.40
2023-04-11T16:32:45.304Z,2.42
2023-04-11T16:35:12.389Z,3.95
2023-04-11T16:37:39.390Z,4.05
2023-04-11T16:40:11.828Z,3.45
2023-04-11T16:42:40.493Z,3.22
2023-04-11T16:45:10.173Z,2.60
2023-04-11T16:47:37.404Z,3.30
2023-04-11T16:50:05.951Z,3.63
2023-04-11T16:52:33.212Z,3.00
2023-04-11T16:55:00.226Z,4.97
2023-04-11T16:57:27.596Z,4.22
2023-04-11T16:59:54.836Z,9.57
2023-04-11T17:02:22.252Z,8.93
2023-04-11T17:04:49.622Z,5.07
2023-04-11T17:07:18.052Z,6.00
2023-04-11T17:09:48.614Z,8.35
2023-04-11T17:14:42.794Z,4.18
2023-04-11T17:17:10.019Z,5.32
2023-04-11T17:19:37.312Z,5.38
2023-04-11T17:22:06.139Z,5.65
2023-04-11T17:24:33.460Z,6.65
2023-04-11T17:27:00.707Z,6.75
2023-04-11T17:29:27.990Z,5.15
2023-04-11T17:31:55.071Z,24.42
2023-04-11T17:34:22.141Z,10.27
2023-04-11T17:36:49.150Z,6.72
2023-04-11T17:39:19.737Z,4.95
2023-04-11T17:41:47.448Z,4.97
2023-04-11T17:44:14.594Z,6.13
2023-04-11T17:46:41.656Z,6.82
2023-04-11T17:49:08.894Z,6.25
2023-04-11T17:51:40.824Z,6.28
2023-04-11T17:54:10.511Z,6.18
2023-04-11T17:56:37.502Z,6.38
2023-04-11T17:59:04.599Z,7.28
2023-04-11T18:01:32.837Z,5.28
2023-04-11T18:04:01.674Z,6.07
2023-04-11T18:06:29.823Z,5.57
2023-04-11T18:08:56.996Z,5.40
2023-04-11T18:11:24.274Z,7.60
2023-04-11T18:13:51.329Z,7.40
2023-04-11T18:16:18.665Z,5.10
2023-04-11T18:18:47.755Z,5.30
2023-04-11T18:21:16.572Z,5.50
2023-04-11T18:23:43.744Z,6.10
2023-04-11T18:26:10.961Z,5.93
2023-04-11T18:28:38.123Z,7.20
2023-04-11T18:31:05.803Z,24.73
2023-04-11T18:33:33.419Z,6.50
2023-04-11T18:36:00.899Z,7.18
2023-04-11T18:38:28.017Z,7.35
2023-04-11T18:40:56.517Z,9.57
2023-04-11T18:43:25.030Z,6.30
2023-04-11T18:45:52.152Z,6.40
2023-04-11T18:48:19.367Z,10.32
2023-04-11T18:50:48.875Z,15.25
2023-04-11T18:53:16.542Z,6.43
2023-04-11T18:55:43.626Z,9.07
2023-04-11T18:58:14.735Z,10.23
2023-04-11T19:00:43.709Z,7.43
2023-04-11T19:03:15.696Z,8.38
2023-04-11T19:05:44.179Z,8.55
2023-04-11T19:08:11.355Z,7.78
2023-04-11T19:10:39.390Z,7.68
2023-04-11T19:13:06.778Z,16.85
2023-04-11T19:15:34.025Z,8.77
2023-04-11T19:18:02.075Z,7.13
2023-04-11T19:20:29.849Z,6.95
2023-04-11T19:22:57.281Z,6.80
2023-04-11T19:25:24.749Z,8.93
2023-04-11T19:27:51.945Z,8.88
2023-04-11T19:30:19.073Z,7.93
2023-04-11T19:32:47.939Z,7.70
2023-04-11T19:35:15.687Z,8.48
2023-04-11T19:37:43.157Z,6.80
2023-04-11T19:40:16.927Z,6.32
2023-04-11T19:42:45.569Z,6.88
2023-04-11T19:45:12.821Z,6.97
2023-04-11T19:47:41.114Z,7.10
2023-04-11T19:50:15.452Z,8.15
2023-04-11T19:52:43.317Z,6.78
2023-04-11T19:55:13.160Z,8.25
2023-04-11T19:57:41.626Z,8.18
2023-04-11T20:00:14.450Z,8.32
2023-04-11T20:02:47.686Z,8.38
2023-04-11T20:05:17.263Z,8.57
2023-04-11T20:07:45.507Z,9.10
2023-04-11T20:10:18.689Z,9.70
2023-04-11T20:12:48.512Z,8.05
2023-04-11T20:15:15.932Z,9.93
2023-04-11T20:17:45.411Z,9.93
2023-04-11T20:22:40.733Z,9.00
2023-04-11T20:25:11.652Z,8.50
2023-04-11T20:27:39.568Z,9.52
2023-04-11T20:30:10.674Z,9.90
2023-04-11T20:32:38.366Z,9.60
2023-04-11T20:35:05.966Z,9.18
2023-04-11T20:37:34.733Z,8.52
2023-04-11T20:40:02.544Z,8.73
2023-04-11T20:42:31.802Z,10.48
2023-04-11T20:45:07.386Z,14.00
2023-04-11T20:47:37.411Z,14.02
2023-04-11T20:50:10.507Z,10.32
2023-04-11T20:52:38.707Z,12.30
2023-04-11T20:55:06.307Z,15.50
2023-04-11T20:57:36.226Z,24.83
2023-04-11T21:00:15.213Z,15.23
2023-04-11T21:02:47.494Z,13.98
2023-04-11T21:05:15.594Z,14.60
2023-04-11T21:07:43.446Z,15.23
2023-04-11T21:10:12.343Z,15.38
2023-04-11T21:12:39.693Z,19.85
2023-04-11T21:15:07.558Z,17.83
2023-04-11T21:17:35.680Z,14.02
2023-04-11T21:20:18.046Z,15.50
2023-04-11T21:22:46.980Z,14.25
2023-04-11T21:25:14.528Z,15.77
2023-04-11T21:27:42.135Z,12.48
2023-04-11T21:30:10.344Z,13.38
2023-04-11T21:32:37.687Z,12.20
2023-04-11T21:35:11.544Z,14.25
2023-04-11T21:37:39.303Z,13.18
2023-04-11T21:40:07.208Z,14.10
2023-04-11T21:42:34.351Z,13.93
2023-04-11T21:45:01.486Z,14.20
2023-04-11T21:47:28.687Z,10.10
2023-04-11T21:49:55.813Z,11.32
2023-04-11T21:52:23.041Z,11.75
2023-04-11T21:54:50.163Z,9.32
2023-04-11T21:57:17.410Z,13.18
2023-04-11T21:59:45.155Z,12.70
2023-04-11T22:02:12.520Z,11.90
2023-04-11T22:04:51.725Z,12.13
2023-04-11T22:07:32.427Z,11.20
2023-04-11T22:10:09.300Z,10.18
2023-04-11T22:12:37.071Z,12.40
2023-04-11T22:15:05.528Z,10.10
2023-04-11T22:17:32.794Z,9.38
2023-04-11T22:20:00.164Z,8.25
2023-04-11T22:22:30.596Z,11.05
2023-04-11T22:27:27.935Z,7.95
2023-04-11T22:30:00.002Z,8.30
2023-04-11T22:32:27.445Z,9.55
2023-04-11T22:34:54.715Z,9.73
2023-04-11T22:37:53.907Z,11.15
2023-04-11T22:40:22.605Z,10.18
2023-04-11T22:42:53.376Z,9.10
2023-04-11T22:45:22.017Z,10.00
2023-04-11T22:47:54.543Z,8.10
2023-04-11T22:50:22.208Z,10.70
2023-04-11T22:52:50.320Z,8.95
2023-04-11T22:55:18.979Z,10.05
2023-04-11T22:57:46.552Z,9.38
2023-04-11T23:00:16.522Z,8.90
2023-04-11T23:02:44.282Z,10.48
2023-04-11T23:05:11.619Z,10.13
2023-04-11T23:07:39.044Z,7.95
2023-04-11T23:10:14.121Z,8.75
2023-04-11T23:12:45.236Z,8.55
2023-04-11T23:15:12.767Z,9.32
2023-04-11T23:17:40.425Z,9.98
2023-04-11T23:20:12.668Z,8.05
2023-04-11T23:22:42.457Z,10.48
2023-04-11T23:25:15.242Z,10.57
2023-04-11T23:27:43.873Z,10.15
2023-04-11T23:30:12.637Z,9.00
2023-04-11T23:32:40.254Z,11.52
2023-04-11T23:35:08.590Z,9.20
2023-04-11T23:37:35.825Z,9.82
2023-04-11T23:40:11.096Z,12.45
2023-04-11T23:42:38.892Z,8.05
2023-04-11T23:45:10.880Z,10.73
2023-04-11T23:47:38.660Z,9.35
2023-04-11T23:50:06.329Z,10.27
2023-04-11T23:52:34.431Z,11.55
2023-04-11T23:55:01.630Z,8.60
2023-04-11T23:57:28.934Z,11.75
2023-04-11T23:59:55.992Z,9.38
